createdAt,value
2018-06-13T00:01:14.041Z,17.10
2018-06-13T00:03:41.127Z,17.10
2018-06-13T00:06:08.029Z,17.10
2018-06-13T00:08:34.986Z,17.10
2018-06-13T00:11:02.719Z,17.00
2018-06-13T00:13:29.592Z,16.90
2018-06-13T00:15:57.323Z,17.10
2018-06-13T00:18:24.768Z,17.10
2018-06-13T00:20:51.743Z,17.00
2018-06-13T00:23:18.688Z,16.90
2018-06-13T00:25:45.556Z,17.00
2018-06-13T00:28:12.488Z,16.90
2018-06-13T00:30:39.385Z,16.80
2018-06-13T00:33:06.365Z,16.90
2018-06-13T00:35:33.234Z,16.90
2018-06-13T00:38:00.183Z,16.80
2018-06-13T00:40:27.816Z,16.80
2018-06-13T00:42:54.766Z,16.80
2018-06-13T00:45:21.625Z,16.70
2018-06-13T00:47:48.494Z,16.70
2018-06-13T00:50:16.168Z,16.70
2018-06-13T00:52:43.794Z,16.60
2018-06-13T00:55:10.727Z,16.60
2018-06-13T00:57:37.607Z,16.70
2018-06-13T01:00:05.515Z,16.60
2018-06-13T01:02:32.495Z,16.60
2018-06-13T01:04:59.372Z,16.70
2018-06-13T01:07:27.021Z,16.70
2018-06-13T01:09:53.960Z,16.70
2018-06-13T01:12:20.852Z,16.60
2018-06-13T01:14:47.877Z,16.60
2018-06-13T01:17:15.516Z,16.60
2018-06-13T01:19:42.437Z,16.60
2018-06-13T01:22:09.369Z,16.50
2018-06-13T01:24:36.315Z,16.50
2018-06-13T01:27:03.305Z,16.50
2018-06-13T01:29:30.315Z,16.40
2018-06-13T01:31:57.193Z,16.40
2018-06-13T01:34:24.063Z,16.30
2018-06-13T01:36:51.025Z,16.40
2018-06-13T01:39:17.899Z,16.40
2018-06-13T01:41:44.843Z,16.50
2018-06-13T01:44:11.709Z,16.30
2018-06-13T01:46:38.717Z,16.30
2018-06-13T01:49:05.710Z,16.40
2018-06-13T01:51:32.784Z,16.40
2018-06-13T01:53:59.752Z,16.60
2018-06-13T01:56:26.744Z,16.60
2018-06-13T01:58:53.687Z,16.50
2018-06-13T02:01:20.639Z,16.50
2018-06-13T02:03:47.529Z,16.60
2018-06-13T02:06:14.537Z,16.60
2018-06-13T02:08:41.488Z,16.60
2018-06-13T02:11:08.412Z,16.60
2018-06-13T02:13:35.380Z,16.60
2018-06-13T02:16:02.361Z,16.60
2018-06-13T02:18:29.367Z,16.50
2018-06-13T02:20:56.460Z,16.50
2018-06-13T02:23:23.364Z,16.40
2018-06-13T02:25:50.993Z,16.40
2018-06-13T02:28:18.016Z,16.40
2018-06-13T02:30:44.997Z,16.40
2018-06-13T02:33:11.984Z,16.30
2018-06-13T02:35:38.948Z,16.40
2018-06-13T02:38:06.639Z,16.40
2018-06-13T02:40:33.588Z,16.40
2018-06-13T02:43:00.613Z,16.30
2018-06-13T02:45:27.584Z,16.30
2018-06-13T02:47:54.518Z,16.40
2018-06-13T02:50:21.408Z,16.30
2018-06-13T02:52:48.396Z,16.30
2018-06-13T02:55:16.078Z,16.10
2018-06-13T02:57:43.108Z,16.10
2018-06-13T03:00:10.123Z,16.20
2018-06-13T03:02:37.018Z,16.10
2018-06-13T03:05:03.917Z,16.10
2018-06-13T03:07:30.856Z,16.10
2018-06-13T03:09:57.807Z,16.00
2018-06-13T03:12:24.748Z,16.00
2018-06-13T03:14:51.612Z,16.10
2018-06-13T03:17:19.317Z,16.10
2018-06-13T03:19:46.332Z,16.10
2018-06-13T03:22:13.240Z,16.20
2018-06-13T03:24:40.223Z,16.10
2018-06-13T03:27:07.850Z,16.10
2018-06-13T03:29:34.823Z,16.10
2018-06-13T03:32:01.715Z,16.10
2018-06-13T03:34:28.712Z,16.10
2018-06-13T03:36:56.372Z,16.00
2018-06-13T03:39:23.309Z,16.00
2018-06-13T03:41:50.193Z,16.10
2018-06-13T03:44:17.204Z,16.20
2018-06-13T03:46:44.133Z,16.10
2018-06-13T03:49:11.080Z,16.20
2018-06-13T03:51:38.024Z,16.20
2018-06-13T03:54:04.936Z,16.30
2018-06-13T03:56:31.913Z,16.30
2018-06-13T03:58:58.950Z,16.30
2018-06-13T04:01:25.839Z,16.30
2018-06-13T04:03:52.805Z,16.40
2018-06-13T04:06:19.787Z,16.40
2018-06-13T04:08:46.696Z,16.30
2018-06-13T04:11:13.717Z,16.50
2018-06-13T04:13:40.739Z,16.40
2018-06-13T04:16:08.560Z,16.30
2018-06-13T04:18:36.199Z,16.30
2018-06-13T04:21:03.146Z,16.30
2018-06-13T04:23:36.003Z,16.30
2018-06-13T04:26:03.136Z,16.40
2018-06-13T04:28:43.506Z,16.40
2018-06-13T04:31:12.149Z,16.50
2018-06-13T04:33:42.887Z,16.50
2018-06-13T04:36:09.796Z,16.50
2018-06-13T04:38:37.274Z,16.60
2018-06-13T04:41:06.428Z,17.10
2018-06-13T04:43:33.413Z,17.20
2018-06-13T04:46:01.141Z,18.00
2018-06-13T04:48:28.103Z,18.00
2018-06-13T04:50:55.295Z,18.50
2018-06-13T04:53:22.196Z,19.20
2018-06-13T04:55:49.101Z,20.40
2018-06-13T04:58:16.836Z,20.60
2018-06-13T05:00:44.502Z,20.30
2018-06-13T05:03:12.205Z,22.20
2018-06-13T05:05:39.098Z,22.10
2018-06-13T05:08:17.049Z,24.80
2018-06-13T05:10:44.311Z,26.80
2018-06-13T05:13:11.293Z,27.40
2018-06-13T05:15:38.198Z,26.80
2018-06-13T05:18:05.212Z,26.40
2018-06-13T05:20:32.877Z,26.70
2018-06-13T05:22:59.839Z,26.60
2018-06-13T05:25:27.585Z,27.90
2018-06-13T05:27:54.603Z,27.90
2018-06-13T05:30:21.477Z,26.60
2018-06-13T05:32:48.428Z,24.80
2018-06-13T05:35:15.325Z,22.80
2018-06-13T05:37:42.189Z,21.50
2018-06-13T05:40:09.132Z,20.60
2018-06-13T05:42:36.022Z,20.00
2018-06-13T05:45:03.792Z,19.80
2018-06-13T05:47:30.677Z,19.80
2018-06-13T05:49:57.544Z,19.60
2018-06-13T05:52:24.500Z,19.10
2018-06-13T05:54:51.377Z,19.00
2018-06-13T05:57:18.710Z,19.20
2018-06-13T05:59:46.602Z,19.30
2018-06-13T06:02:13.628Z,19.20
2018-06-13T06:04:40.576Z,19.10
2018-06-13T06:07:07.524Z,19.40
2018-06-13T06:09:34.507Z,19.60
2018-06-13T06:12:01.471Z,19.70
2018-06-13T06:14:28.391Z,19.30
2018-06-13T06:16:55.459Z,19.00
2018-06-13T06:19:22.385Z,18.90
2018-06-13T06:21:49.405Z,18.80
2018-06-13T06:24:16.329Z,18.40
2018-06-13T06:26:43.285Z,18.30
2018-06-13T06:29:10.270Z,18.20
2018-06-13T06:31:37.230Z,18.20
2018-06-13T06:34:04.248Z,18.20
2018-06-13T06:36:32.149Z,18.40
2018-06-13T06:38:59.161Z,18.40
2018-06-13T06:41:26.792Z,18.10
2018-06-13T06:43:53.768Z,18.10
2018-06-13T06:46:20.739Z,18.30
2018-06-13T06:48:47.985Z,18.60
2018-06-13T06:51:14.909Z,18.80
2018-06-13T06:53:41.912Z,18.70
2018-06-13T06:56:08.861Z,18.80
2018-06-13T06:58:35.769Z,18.60
2018-06-13T07:01:02.777Z,18.80
2018-06-13T07:03:29.657Z,18.80
2018-06-13T07:05:56.574Z,18.90
2018-06-13T07:08:23.558Z,19.20
2018-06-13T07:10:50.497Z,19.00
2018-06-13T07:13:18.186Z,19.00
2018-06-13T07:15:45.140Z,18.90
2018-06-13T07:18:12.081Z,19.20
2018-06-13T07:20:39.040Z,18.90
2018-06-13T07:23:05.945Z,18.50
2018-06-13T07:25:33.627Z,18.30
2018-06-13T07:28:00.609Z,18.30
2018-06-13T07:30:27.520Z,17.90
2018-06-13T07:32:54.416Z,17.80
2018-06-13T07:35:21.360Z,17.90
2018-06-13T07:37:48.237Z,17.70
2018-06-13T07:40:15.988Z,18.10
2018-06-13T07:42:43.630Z,18.00
2018-06-13T07:45:10.581Z,18.00
2018-06-13T07:47:37.456Z,18.10
2018-06-13T07:50:05.156Z,18.50
2018-06-13T07:52:32.057Z,18.50
2018-06-13T07:54:59.772Z,18.80
2018-06-13T07:57:26.657Z,18.80
2018-06-13T07:59:53.620Z,18.90
2018-06-13T08:02:20.523Z,18.60
2018-06-13T08:04:48.255Z,18.40
2018-06-13T08:07:15.156Z,18.40
2018-06-13T08:09:42.157Z,18.10
2018-06-13T08:12:09.111Z,18.10
2018-06-13T08:14:35.988Z,18.20
2018-06-13T08:17:02.872Z,18.10
2018-06-13T08:19:29.815Z,18.30
2018-06-13T08:21:56.697Z,18.50
2018-06-13T08:24:23.573Z,18.40
2018-06-13T08:26:50.540Z,18.20
2018-06-13T08:29:18.211Z,18.70
2018-06-13T08:31:45.219Z,18.70
2018-06-13T08:34:12.097Z,18.80
2018-06-13T08:36:39.854Z,18.40
2018-06-13T08:39:08.371Z,18.30
2018-06-13T08:41:36.259Z,18.30
2018-06-13T08:44:03.156Z,18.00
2018-06-13T08:46:30.774Z,17.70
2018-06-13T08:48:57.722Z,17.70
2018-06-13T08:51:24.667Z,17.60
2018-06-13T08:53:51.646Z,17.70
2018-06-13T08:56:18.567Z,17.80
2018-06-13T08:58:45.511Z,17.80
2018-06-13T09:01:12.464Z,18.10
2018-06-13T09:03:39.414Z,18.10
2018-06-13T09:06:06.283Z,18.10
2018-06-13T09:08:33.228Z,18.20
2018-06-13T09:11:00.089Z,18.30
2018-06-13T09:13:26.980Z,18.50
2018-06-13T09:15:53.941Z,18.40
2018-06-13T09:18:20.841Z,18.50
2018-06-13T09:20:47.830Z,18.60
2018-06-13T09:23:14.778Z,18.80
2018-06-13T09:25:41.690Z,18.90
2018-06-13T09:28:08.674Z,18.70
2018-06-13T09:30:35.612Z,18.90
2018-06-13T09:33:02.510Z,18.80
2018-06-13T09:35:29.497Z,18.80
2018-06-13T09:37:56.441Z,18.80
2018-06-13T09:40:23.441Z,18.70
2018-06-13T09:42:50.470Z,18.60
2018-06-13T09:45:17.461Z,18.70
2018-06-13T09:47:44.422Z,18.70
2018-06-13T09:50:11.427Z,18.40
2018-06-13T09:52:38.398Z,18.40
2018-06-13T09:55:05.352Z,18.30
2018-06-13T09:57:32.250Z,18.40
2018-06-13T10:00:00.072Z,18.80
2018-06-13T10:02:27.018Z,18.80
2018-06-13T10:04:54.009Z,19.00
2018-06-13T10:07:20.920Z,19.00
2018-06-13T10:09:47.897Z,19.10
2018-06-13T10:12:14.843Z,19.50
2018-06-13T10:14:41.730Z,19.40
2018-06-13T10:17:08.688Z,19.50
2018-06-13T10:19:36.024Z,19.50
2018-06-13T10:22:03.168Z,19.50
2018-06-13T10:24:30.241Z,19.60
2018-06-13T10:26:57.193Z,19.10
2018-06-13T10:29:24.191Z,19.00
2018-06-13T10:31:51.866Z,18.90
2018-06-13T10:34:18.934Z,18.90
2018-06-13T10:36:45.819Z,18.80
2018-06-13T10:39:12.804Z,19.00
2018-06-13T10:41:40.497Z,19.10
2018-06-13T10:44:07.550Z,19.10
2018-06-13T10:46:34.448Z,19.00
2018-06-13T10:49:01.322Z,19.20
2018-06-13T10:51:28.296Z,19.50
2018-06-13T10:53:55.206Z,19.50
2018-06-13T10:56:22.919Z,19.60
2018-06-13T10:58:49.799Z,19.60
2018-06-13T11:01:17.528Z,20.00
2018-06-13T11:03:44.495Z,20.00
2018-06-13T11:06:16.923Z,20.20
2018-06-13T11:08:44.108Z,20.40
2018-06-13T11:11:11.079Z,21.00
2018-06-13T11:13:38.453Z,21.10
2018-06-13T11:16:10.650Z,21.00
2018-06-13T11:18:44.379Z,21.10
2018-06-13T11:21:13.582Z,20.50
2018-06-13T11:23:43.788Z,20.10
2018-06-13T11:26:13.998Z,19.90
2018-06-13T11:28:42.461Z,19.30
2018-06-13T11:31:09.823Z,19.20
2018-06-13T11:33:42.843Z,19.50
2018-06-13T11:36:10.489Z,19.50
2018-06-13T11:38:37.372Z,19.40
2018-06-13T11:41:18.101Z,19.40
2018-06-13T11:43:49.289Z,19.80
2018-06-13T11:46:17.993Z,19.50
2018-06-13T11:48:56.181Z,19.50
2018-06-13T11:51:23.525Z,19.50
2018-06-13T11:53:50.488Z,19.80
2018-06-13T11:56:19.543Z,19.90
2018-06-13T11:58:47.822Z,20.10
2018-06-13T12:01:14.838Z,19.80
2018-06-13T12:03:44.052Z,20.20
2018-06-13T12:06:13.046Z,20.10
2018-06-13T12:08:43.837Z,19.80
2018-06-13T12:11:15.057Z,19.60
2018-06-13T12:13:44.537Z,19.50
2018-06-13T12:16:15.408Z,19.40
2018-06-13T12:18:44.072Z,19.50
2018-06-13T12:21:11.061Z,19.80
2018-06-13T12:23:41.755Z,19.80
2018-06-13T12:26:13.720Z,20.20
2018-06-13T12:28:41.652Z,20.10
2018-06-13T12:31:11.394Z,20.10
2018-06-13T12:33:38.953Z,20.50
2018-06-13T12:36:13.343Z,20.40
2018-06-13T12:38:42.003Z,20.40
2018-06-13T12:41:09.015Z,20.60
2018-06-13T12:43:35.974Z,20.80
2018-06-13T12:46:03.308Z,20.60
2018-06-13T12:48:30.996Z,20.80
2018-06-13T12:50:58.796Z,20.80
2018-06-13T12:53:25.879Z,21.00
2018-06-13T12:56:05.766Z,21.40
2018-06-13T12:58:33.329Z,21.40
2018-06-13T13:01:00.274Z,21.50
2018-06-13T13:03:28.727Z,21.40
2018-06-13T13:06:01.537Z,21.80
2018-06-13T13:08:29.488Z,21.80
2018-06-13T13:11:10.679Z,21.60
2018-06-13T13:13:41.278Z,21.00
2018-06-13T13:16:09.085Z,20.70
2018-06-13T13:18:38.238Z,20.80
2018-06-13T13:21:22.457Z,20.10
2018-06-13T13:23:50.352Z,20.10
2018-06-13T13:26:17.301Z,20.30
2018-06-13T13:28:44.191Z,20.40
2018-06-13T13:31:11.243Z,20.50
2018-06-13T13:33:38.256Z,20.60
2018-06-13T13:36:05.905Z,20.50
2018-06-13T13:38:32.947Z,20.50
2018-06-13T13:41:00.716Z,20.70
2018-06-13T13:43:27.673Z,20.70
2018-06-13T13:45:54.729Z,20.40
2018-06-13T13:48:21.625Z,20.60
2018-06-13T13:50:48.525Z,20.60
2018-06-13T13:53:15.498Z,20.70
2018-06-13T13:55:42.401Z,20.80
2018-06-13T13:58:09.414Z,20.80
2018-06-13T14:00:36.309Z,20.70
2018-06-13T14:03:04.120Z,20.70
2018-06-13T14:05:31.010Z,20.70
2018-06-13T14:07:58.709Z,20.40
2018-06-13T14:10:25.733Z,20.30
2018-06-13T14:12:52.655Z,20.40
2018-06-13T14:15:20.450Z,21.10
2018-06-13T14:17:47.404Z,21.00
2018-06-13T14:20:14.381Z,21.20
2018-06-13T14:22:41.466Z,21.10
2018-06-13T14:25:09.176Z,21.00
2018-06-13T14:27:36.186Z,21.00
2018-06-13T14:30:03.998Z,21.00
2018-06-13T14:32:30.980Z,21.00
2018-06-13T14:34:57.978Z,21.00
2018-06-13T14:37:24.979Z,20.90
2018-06-13T14:39:52.013Z,20.90
2018-06-13T14:42:19.018Z,20.40
2018-06-13T14:44:46.017Z,20.10
2018-06-13T14:47:13.001Z,20.20
2018-06-13T14:49:40.646Z,19.90
2018-06-13T14:52:08.375Z,19.90
2018-06-13T14:54:35.379Z,19.90
2018-06-13T14:57:03.217Z,20.00
2018-06-13T14:59:30.221Z,20.00
2018-06-13T15:01:57.203Z,19.90
2018-06-13T15:04:24.246Z,19.50
2018-06-13T15:06:51.193Z,19.30
2018-06-13T15:09:18.143Z,19.20
2018-06-13T15:11:45.113Z,19.20
2018-06-13T15:14:12.727Z,19.10
2018-06-13T15:16:39.740Z,19.10
2018-06-13T15:19:06.667Z,19.10
2018-06-13T15:21:33.749Z,19.30
2018-06-13T15:24:00.710Z,19.30
2018-06-13T15:26:27.779Z,19.00
2018-06-13T15:28:54.983Z,19.20
2018-06-13T15:31:21.952Z,19.30
2018-06-13T15:33:48.957Z,19.10
2018-06-13T15:36:16.727Z,19.30
2018-06-13T15:38:43.650Z,19.20
2018-06-13T15:41:10.647Z,19.40
2018-06-13T15:43:38.042Z,19.30
2018-06-13T15:46:04.974Z,19.30
2018-06-13T15:48:31.953Z,19.50
2018-06-13T15:50:58.869Z,19.40
2018-06-13T15:53:25.865Z,19.40
2018-06-13T15:55:53.581Z,19.60
2018-06-13T15:58:20.547Z,19.50
2018-06-13T16:00:47.426Z,19.70
2018-06-13T16:03:16.758Z,19.70
2018-06-13T16:05:46.187Z,19.80
2018-06-13T16:08:16.442Z,19.70
2018-06-13T16:10:43.619Z,19.70
2018-06-13T16:13:10.581Z,19.70
2018-06-13T16:15:38.061Z,19.70
2018-06-13T16:18:05.070Z,19.70
2018-06-13T16:20:36.327Z,19.40
2018-06-13T16:23:04.359Z,19.40
2018-06-13T16:25:32.820Z,19.30
2018-06-13T16:28:03.339Z,19.30
2018-06-13T16:30:33.960Z,19.30
2018-06-13T16:33:01.455Z,19.30
2018-06-13T16:35:28.384Z,19.30
2018-06-13T16:40:44.760Z,19.20
2018-06-13T16:43:25.074Z,19.10
2018-06-13T16:46:08.096Z,18.90
2018-06-13T16:48:49.145Z,18.90
2018-06-13T16:51:47.023Z,18.90
2018-06-13T16:54:30.187Z,19.10
2018-06-13T16:57:11.817Z,19.20
2018-06-13T16:59:48.984Z,19.30
2018-06-13T17:02:20.281Z,19.30
2018-06-13T17:04:49.843Z,19.30
2018-06-13T17:07:18.440Z,19.10
2018-06-13T17:09:47.524Z,19.30
2018-06-13T17:12:16.367Z,19.30
2018-06-13T17:14:43.318Z,19.30
2018-06-13T17:17:10.820Z,19.30
2018-06-13T17:19:41.156Z,19.30
2018-06-13T17:22:08.529Z,19.40
2018-06-13T17:24:37.643Z,19.40
2018-06-13T17:27:05.407Z,19.40
2018-06-13T17:29:32.320Z,19.40
2018-06-13T17:32:01.471Z,19.50
2018-06-13T17:34:29.061Z,19.50
2018-06-13T17:36:57.341Z,19.50
2018-06-13T17:39:25.799Z,19.60
2018-06-13T17:41:52.741Z,19.60
2018-06-13T17:44:19.708Z,19.50
2018-06-13T17:46:47.416Z,19.50
2018-06-13T17:49:14.369Z,19.50
2018-06-13T17:51:41.322Z,19.40
2018-06-13T17:54:08.270Z,19.40
2018-06-13T17:56:35.943Z,19.30
2018-06-13T17:59:02.971Z,19.30
2018-06-13T18:01:39.462Z,19.40
2018-06-13T18:04:06.863Z,19.30
2018-06-13T18:06:36.764Z,19.30
2018-06-13T18:09:04.025Z,19.30
2018-06-13T18:11:31.650Z,19.10
2018-06-13T18:13:58.552Z,19.10
2018-06-13T18:16:25.541Z,19.10
2018-06-13T18:18:52.575Z,19.10
2018-06-13T18:21:19.460Z,18.90
2018-06-13T18:23:46.406Z,18.70
2018-06-13T18:26:13.378Z,18.60
2018-06-13T18:28:41.188Z,18.50
2018-06-13T18:31:19.637Z,18.50
2018-06-13T18:33:58.602Z,18.30
2018-06-13T18:36:38.255Z,18.30
2018-06-13T18:39:19.776Z,18.30
2018-06-13T18:41:59.440Z,18.20
2018-06-13T18:44:38.796Z,18.20
2018-06-13T18:47:19.540Z,18.30
2018-06-13T18:49:58.799Z,18.20
2018-06-13T18:55:21.825Z,18.20
2018-06-13T18:58:01.665Z,18.10
2018-06-13T19:00:39.359Z,18.20
2018-06-13T19:03:16.936Z,18.10
2018-06-13T19:05:44.871Z,18.10
2018-06-13T19:08:25.122Z,18.00
2018-06-13T19:10:53.159Z,18.00
2018-06-13T19:13:31.482Z,18.00
2018-06-13T19:21:21.522Z,18.00
2018-06-13T19:23:48.409Z,17.90
2018-06-13T19:26:15.346Z,17.90
2018-06-13T19:28:43.081Z,17.80
2018-06-13T19:31:09.962Z,17.80
2018-06-13T19:33:37.629Z,17.80
2018-06-13T19:36:05.305Z,17.80
2018-06-13T19:38:32.296Z,17.80
2018-06-13T19:41:11.933Z,17.80
2018-06-13T19:43:39.423Z,17.80
2018-06-13T19:46:21.186Z,17.80
2018-06-13T19:49:05.132Z,17.80
2018-06-13T19:51:46.310Z,17.80
2018-06-13T19:54:20.369Z,17.70
2018-06-13T19:56:48.312Z,17.70
2018-06-13T19:59:15.235Z,17.70
2018-06-13T20:01:42.127Z,17.70
2018-06-13T20:04:19.287Z,17.60
2018-06-13T20:07:01.509Z,17.60
2018-06-13T20:09:42.756Z,17.60
2018-06-13T20:12:27.891Z,17.60
2018-06-13T20:15:11.766Z,17.50
2018-06-13T20:20:40.183Z,17.60
2018-06-13T20:23:25.128Z,17.60
2018-06-13T20:26:10.318Z,17.60
2018-06-13T20:29:06.954Z,17.50
2018-06-13T20:31:50.861Z,17.60
2018-06-13T20:34:31.987Z,17.60
2018-06-13T20:37:16.279Z,17.50
2018-06-13T20:39:59.142Z,17.40
2018-06-13T20:42:40.171Z,17.40
2018-06-13T20:45:21.914Z,17.40
2018-06-13T20:50:32.219Z,17.30
2018-06-13T20:52:59.111Z,17.30
2018-06-13T20:55:26.031Z,17.30
2018-06-13T20:57:53.734Z,17.30
2018-06-13T21:00:20.630Z,17.20
2018-06-13T21:02:50.400Z,17.20
2018-06-13T21:05:17.377Z,17.20
2018-06-13T21:07:44.312Z,17.20
2018-06-13T21:10:11.290Z,17.20
2018-06-13T21:12:38.204Z,17.20
2018-06-13T21:15:05.922Z,17.20
2018-06-13T21:17:33.475Z,17.20
2018-06-13T21:20:02.020Z,17.30
2018-06-13T21:22:30.947Z,17.20
2018-06-13T21:24:59.320Z,17.20
2018-06-13T21:27:27.796Z,17.20
2018-06-13T21:29:54.721Z,17.10
2018-06-13T21:32:21.693Z,17.10
2018-06-13T21:34:49.593Z,17.00
2018-06-13T21:37:16.464Z,16.90
2018-06-13T21:39:43.423Z,16.90
2018-06-13T21:42:23.406Z,16.90
2018-06-13T21:44:54.553Z,16.80
2018-06-13T21:47:24.808Z,16.80
2018-06-13T21:49:55.863Z,16.70
2018-06-13T21:52:26.386Z,16.80
2018-06-13T21:54:57.705Z,16.70
2018-06-13T21:57:29.181Z,16.70
2018-06-13T21:59:56.822Z,16.70
2018-06-13T22:02:25.547Z,16.60
2018-06-13T22:04:52.511Z,16.60
2018-06-13T22:07:20.801Z,16.70
2018-06-13T22:09:49.408Z,16.70
2018-06-13T22:12:18.712Z,16.70
2018-06-13T22:14:46.351Z,16.80
2018-06-13T22:17:13.392Z,16.80
2018-06-13T22:19:40.481Z,16.80
2018-06-13T22:22:07.509Z,16.80
2018-06-13T22:24:35.190Z,16.60
2018-06-13T22:27:02.094Z,16.60
2018-06-13T22:29:29.113Z,16.60
2018-06-13T22:31:56.021Z,16.60
2018-06-13T22:34:23.691Z,16.60
2018-06-13T22:36:51.564Z,16.60
2018-06-13T22:39:18.715Z,16.60
2018-06-13T22:41:45.607Z,16.60
2018-06-13T22:44:12.571Z,16.60
2018-06-13T22:46:39.574Z,16.60
2018-06-13T22:49:06.541Z,16.50
2018-06-13T22:51:34.200Z,16.60
2018-06-13T22:54:01.060Z,16.50
2018-06-13T22:56:28.007Z,16.40
2018-06-13T22:58:54.876Z,16.40
2018-06-13T23:01:22.570Z,16.40
2018-06-13T23:03:49.452Z,16.40
2018-06-13T23:06:16.426Z,16.40
2018-06-13T23:08:43.301Z,16.40
2018-06-13T23:11:10.256Z,16.40
2018-06-13T23:13:37.130Z,16.40
2018-06-13T23:16:04.060Z,16.30
2018-06-13T23:18:31.012Z,16.40
2018-06-13T23:20:57.992Z,16.30
2018-06-13T23:23:25.777Z,16.40
2018-06-13T23:25:53.462Z,16.40
2018-06-13T23:28:20.423Z,16.40
2018-06-13T23:30:47.313Z,16.40
2018-06-13T23:33:14.313Z,16.40
2018-06-13T23:35:41.184Z,16.40
2018-06-13T23:38:08.105Z,16.40
2018-06-13T23:40:35.118Z,16.30
2018-06-13T23:43:01.984Z,16.30
2018-06-13T23:45:28.941Z,16.30
2018-06-13T23:47:55.924Z,16.30
2018-06-13T23:50:22.931Z,16.30
2018-06-13T23:52:49.893Z,16.30
2018-06-13T23:55:16.880Z,16.20
2018-06-13T23:57:43.992Z,16.20
